Accueil
METAR-TAF:

METAR-TAF

Aéroports :

Grand Junction, Colorado, États-Unis

latitude: 39-08-02N, longitude: 108-32-19W, altitude: 1481 m

Observation

Le bulletin a été fait il y a 23 minutes, à 16:53 UTC
Vent 9 kt de sud/sud-est
Température 8°C
Humidité 31%
Pression 1027 hPa
Visibilité: 16.1 km
Ciel clair

METAR: KGJT 141653Z 15009KT 10SM CLR 08/M08 A3032 RMK AO2 SLP259 T00831078

Heure: 10:16 (17:16 UTC)

Prévision

Le bulletin a été fait il y a 5 heures et 56 minutes, à 11:20 UTC
Prévision valable du 14 à 12 UTC au 15 à 12 UTC
Vent 3 kt de direction variable
Visibilité: 10 km
Ciel clair
A partir de 15 à 0800 UTC
Vent 5 kt de est/sud-est
Visibilité: 10 km
Nuages épars à une hauteur de 15000 ft
Ciel couvert à une hauteur de 20000 ft

TAF: KGJT 141120Z 1412/1512 VRB03KT P6SM SKC FM150800 11005KT P6SM SCT150 OVC200

Observations et prévisions météorologiques de plus de 4000 aéroports (messages METAR et TAF).

Les stations disponibles sont représentées par des disques jaunes et rouges sur la carte.

Passer la souris dessus pour voir le nom de la station.

Cliquer dessus pour voir les observations et prévisions météorologiques.

Pour changer de carte: cliquez sur les boutons verts avec une croix noire pour zoomer, sur le bouton vert avec un tiret pour effectuer un zoom arrière, ou sur les flèches vertes pour les cartes adjacentes.


METAR-TAF: